createdAt,value
2022-11-16T00:00:01.509Z,99401.25
2022-11-16T00:02:31.489Z,99401.28
2022-11-16T00:04:57.837Z,99393.28
2022-11-16T00:07:24.468Z,99403.34
2022-11-16T00:09:50.863Z,99399.78
2022-11-16T00:12:17.369Z,99402.97
2022-11-16T00:14:43.681Z,99400.22
2022-11-16T00:17:10.382Z,99392.63
2022-11-16T00:19:36.943Z,99392.63
2022-11-16T00:22:03.442Z,99385.44
2022-11-16T00:24:29.902Z,99392.28
2022-11-16T00:26:56.347Z,99386.69
2022-11-16T00:29:25.098Z,99377.53
2022-11-16T00:31:52.490Z,99375.13
2022-11-16T00:34:19.350Z,99374.75
2022-11-16T00:36:47.035Z,99374.75
2022-11-16T00:39:15.202Z,99367.97
2022-11-16T00:41:42.443Z,99371.97
2022-11-16T00:44:09.665Z,99368.38
2022-11-16T00:46:36.146Z,99365.63
2022-11-16T00:49:05.657Z,99364.78
2022-11-16T00:51:33.080Z,99365.63
2022-11-16T00:53:59.683Z,99362.44
2022-11-16T00:56:26.026Z,99352.06
2022-11-16T00:58:53.313Z,99348.47
2022-11-16T01:01:19.741Z,99347.28
2022-11-16T01:03:47.667Z,99343.31
2022-11-16T01:06:15.648Z,99340.50
2022-11-16T01:08:43.592Z,99351.72
2022-11-16T01:11:30.941Z,99351.31
2022-11-16T01:13:57.232Z,99342.09
2022-11-16T01:16:24.113Z,99346.13
2022-11-16T01:18:54.096Z,99344.13
2022-11-16T01:21:21.992Z,99339.75
2022-11-16T01:23:48.857Z,99337.72
2022-11-16T01:26:15.391Z,99333.75
2022-11-16T01:28:42.027Z,99337.34
2022-11-16T01:31:09.616Z,99340.59
2022-11-16T01:33:36.971Z,99337.78
2022-11-16T01:36:08.471Z,99336.16
2022-11-16T01:38:35.521Z,99337.38
2022-11-16T01:41:02.400Z,99328.59
2022-11-16T01:43:29.008Z,99333.41
2022-11-16T01:45:55.538Z,99322.56
2022-11-16T01:48:30.100Z,99317.78
2022-11-16T01:50:57.956Z,99318.19
2022-11-16T01:53:25.002Z,99315.00
2022-11-16T01:55:52.279Z,99313.41
2022-11-16T01:58:23.322Z,99313.78
2022-11-16T02:00:50.036Z,99305.38
2022-11-16T02:03:20.609Z,99299.81
2022-11-16T02:06:14.714Z,99303.84
2022-11-16T02:09:18.262Z,99291.00
2022-11-16T02:11:50.581Z,99301.03
2022-11-16T02:14:38.538Z,99293.03
2022-11-16T02:17:28.194Z,99287.44
2022-11-16T02:20:12.425Z,99291.44
2022-11-16T02:22:47.478Z,99286.25
2022-11-16T02:25:36.015Z,99284.28
2022-11-16T02:28:22.891Z,99277.88
2022-11-16T02:30:53.723Z,99282.25
2022-11-16T02:33:25.706Z,99278.66
2022-11-16T02:35:56.857Z,99277.50
2022-11-16T02:38:34.587Z,99277.50
2022-11-16T02:41:14.226Z,99273.91
2022-11-16T02:43:44.771Z,99268.66
2022-11-16T02:46:26.894Z,99262.69
2022-11-16T02:48:56.596Z,99263.06
2022-11-16T02:51:26.462Z,99265.06
2022-11-16T02:54:11.512Z,99264.69
2022-11-16T02:57:02.495Z,99265.50
2022-11-16T02:59:46.427Z,99268.28
2022-11-16T03:02:50.615Z,99270.31
2022-11-16T03:06:03.078Z,99258.28
2022-11-16T03:08:54.653Z,99263.06
2022-11-16T03:11:39.680Z,99263.06
2022-11-16T03:14:10.387Z,99265.06
2022-11-16T03:16:39.750Z,99266.28
2022-11-16T03:19:10.404Z,99265.88
2022-11-16T03:21:43.859Z,99277.06
2022-11-16T03:24:10.555Z,99279.09
2022-11-16T03:26:51.095Z,99276.69
2022-11-16T03:29:31.960Z,99284.69
2022-11-16T03:32:16.674Z,99275.06
2022-11-16T03:34:55.936Z,99279.06
2022-11-16T03:37:24.373Z,99268.22
2022-11-16T03:39:53.177Z,99264.22
2022-11-16T03:42:22.042Z,99255.81
2022-11-16T03:44:49.578Z,99253.78
2022-11-16T03:47:16.121Z,99251.81
2022-11-16T03:49:46.691Z,99249.41
2022-11-16T03:52:15.555Z,99255.00
2022-11-16T03:54:42.495Z,99244.59
2022-11-16T03:57:15.509Z,99243.00
2022-11-16T03:59:43.666Z,99238.63
2022-11-16T04:02:10.660Z,99231.78
2022-11-16T04:04:55.837Z,99224.19
2022-11-16T04:07:40.488Z,99230.59
2022-11-16T04:10:26.203Z,99237.41
2022-11-16T04:13:11.476Z,99227.78
2022-11-16T04:15:56.574Z,99220.59
2022-11-16T04:18:41.772Z,99217.00
2022-11-16T04:21:37.662Z,99229.41
2022-11-16T04:24:13.528Z,99231.00
2022-11-16T04:27:03.082Z,99235.03
2022-11-16T04:29:30.094Z,99243.00
2022-11-16T04:32:14.890Z,99245.00
2022-11-16T04:35:00.001Z,99249.41
2022-11-16T04:37:44.847Z,99247.41
2022-11-16T04:40:11.979Z,99253.78
2022-11-16T04:42:38.518Z,99250.59
2022-11-16T04:45:23.890Z,99253.41
2022-11-16T04:47:51.036Z,99244.56
2022-11-16T04:50:19.200Z,99252.56
2022-11-16T04:52:45.924Z,99244.56
2022-11-16T04:55:15.549Z,99243.34
2022-11-16T04:57:43.018Z,99244.94
2022-11-16T05:00:10.617Z,99242.91
2022-11-16T05:02:37.198Z,99256.53
2022-11-16T05:05:04.037Z,99251.72
2022-11-16T05:07:30.612Z,99254.13
2022-11-16T05:09:57.015Z,99257.34
2022-11-16T05:12:26.388Z,99257.34
2022-11-16T05:14:54.873Z,99260.53
2022-11-16T05:17:22.832Z,99264.91
2022-11-16T05:20:08.023Z,99258.88
2022-11-16T05:22:37.028Z,99266.47
2022-11-16T05:25:04.989Z,99266.47
2022-11-16T05:27:31.731Z,99277.69
2022-11-16T05:29:58.470Z,99271.28
2022-11-16T05:32:26.172Z,99279.28
2022-11-16T05:34:54.578Z,99274.44
2022-11-16T05:37:21.373Z,99272.44
2022-11-16T05:39:48.175Z,99278.06
2022-11-16T05:42:14.742Z,99275.25
2022-11-16T05:44:41.095Z,99287.25
2022-11-16T05:47:07.467Z,99290.84
2022-11-16T05:49:34.816Z,99290.84
2022-11-16T05:52:01.410Z,99286.06
2022-11-16T05:54:28.154Z,99286.88
2022-11-16T05:56:55.261Z,99288.06
2022-11-16T05:59:22.952Z,99295.28
2022-11-16T06:01:51.967Z,99286.47
2022-11-16T06:04:23.985Z,99296.47
2022-11-16T06:06:50.597Z,99300.09
2022-11-16T06:09:18.720Z,99307.69
2022-11-16T06:11:45.659Z,99309.31
2022-11-16T06:14:12.255Z,99314.13
2022-11-16T06:16:38.646Z,99305.69
2022-11-16T06:19:04.994Z,99317.31
2022-11-16T06:21:31.767Z,99316.09
2022-11-16T06:23:58.292Z,99314.50
2022-11-16T06:26:24.656Z,99316.94
2022-11-16T06:28:52.348Z,99320.13
2022-11-16T06:31:18.882Z,99328.94
2022-11-16T06:33:49.417Z,99334.56
2022-11-16T06:36:17.806Z,99328.94
2022-11-16T06:38:45.789Z,99341.75
2022-11-16T06:41:12.325Z,99336.13
2022-11-16T06:43:38.834Z,99347.34
2022-11-16T06:46:06.868Z,99342.97
2022-11-16T06:48:34.274Z,99344.56
2022-11-16T06:51:01.549Z,99342.97
2022-11-16T06:53:29.583Z,99344.19
2022-11-16T06:56:01.030Z,99351.78
2022-11-16T06:58:31.208Z,99344.56
2022-11-16T07:00:58.697Z,99351.81
2022-11-16T07:03:25.077Z,99351.81
2022-11-16T07:05:51.768Z,99347.00
2022-11-16T07:08:18.157Z,99354.25
2022-11-16T07:10:44.483Z,99356.25
2022-11-16T07:13:10.987Z,99360.63
2022-11-16T07:15:37.464Z,99365.44
2022-11-16T07:18:07.101Z,99365.47
2022-11-16T07:20:34.751Z,99367.88
2022-11-16T07:23:02.855Z,99366.25
2022-11-16T07:25:29.794Z,99357.84
2022-11-16T07:27:57.997Z,99362.66
2022-11-16T07:30:24.919Z,99374.66
2022-11-16T07:32:51.302Z,99377.47
2022-11-16T07:35:17.709Z,99385.09
2022-11-16T07:37:44.248Z,99382.69
2022-11-16T07:40:10.913Z,99390.31
2022-11-16T07:42:37.282Z,99388.72
2022-11-16T07:45:03.826Z,99400.31
2022-11-16T07:47:37.381Z,99399.50
2022-11-16T07:50:05.840Z,99411.91
2022-11-16T07:52:32.384Z,99408.72
2022-11-16T07:54:59.056Z,99415.13
2022-11-16T07:57:25.557Z,99420.75
2022-11-16T07:59:51.899Z,99420.69
2022-11-16T08:02:18.283Z,99423.91
2022-11-16T08:04:45.231Z,99432.31
2022-11-16T08:07:11.656Z,99428.66
2022-11-16T08:09:39.300Z,99422.25
2022-11-16T08:12:05.849Z,99430.22
2022-11-16T08:14:32.484Z,99431.00
2022-11-16T08:16:59.345Z,99430.19
2022-11-16T08:19:26.379Z,99429.78
2022-11-16T08:21:52.709Z,99436.56
2022-11-16T08:24:19.218Z,99444.56
2022-11-16T08:26:45.580Z,99444.19
2022-11-16T08:29:12.331Z,99444.56
2022-11-16T08:31:39.360Z,99441.75
2022-11-16T08:34:05.653Z,99441.75
2022-11-16T08:36:32.182Z,99444.56
2022-11-16T08:38:58.623Z,99456.19
2022-11-16T08:41:25.047Z,99455.41
2022-11-16T08:43:55.819Z,99461.00
2022-11-16T08:46:22.244Z,99465.81
2022-11-16T08:48:48.918Z,99466.63
2022-11-16T08:51:19.624Z,99467.81
2022-11-16T08:53:48.669Z,99468.63
2022-11-16T08:56:16.452Z,99473.03
2022-11-16T08:58:45.240Z,99476.63
2022-11-16T09:01:16.835Z,99481.00
2022-11-16T09:03:44.207Z,99478.22
2022-11-16T09:06:11.508Z,99491.44
2022-11-16T09:08:39.771Z,99496.63
2022-11-16T09:11:08.088Z,99506.25
2022-11-16T09:13:34.563Z,99492.22
2022-11-16T09:16:02.291Z,99489.38
2022-11-16T09:18:28.991Z,99501.38
2022-11-16T09:20:55.845Z,99505.38
2022-11-16T09:23:25.470Z,99500.94
2022-11-16T09:25:53.103Z,99504.09
2022-11-16T09:28:20.726Z,99515.31
2022-11-16T09:30:50.107Z,99517.31
2022-11-16T09:33:16.957Z,99528.47
2022-11-16T09:35:43.451Z,99529.25
2022-11-16T09:38:10.306Z,99526.06
2022-11-16T09:40:43.212Z,99524.84
2022-11-16T09:43:45.835Z,99525.63
2022-11-16T09:46:27.976Z,99524.00
2022-11-16T09:48:58.014Z,99523.63
2022-11-16T09:51:29.222Z,99523.19
2022-11-16T09:54:02.163Z,99522.78
2022-11-16T09:56:31.129Z,99523.19
2022-11-16T09:59:06.431Z,99519.56
2022-11-16T10:01:39.028Z,99519.56
2022-11-16T10:04:17.495Z,99521.97
2022-11-16T10:06:47.137Z,99535.59
2022-11-16T10:09:14.886Z,99527.59
2022-11-16T10:11:54.424Z,99536.41
2022-11-16T10:14:45.635Z,99529.63
2022-11-16T10:17:37.207Z,99526.81
2022-11-16T10:20:30.916Z,99533.63
2022-11-16T10:23:00.832Z,99533.63
2022-11-16T10:25:41.880Z,99531.22
2022-11-16T10:28:26.346Z,99531.56
2022-11-16T10:31:26.598Z,99533.13
2022-11-16T10:33:56.923Z,99530.28
2022-11-16T10:36:29.406Z,99519.84
2022-11-16T10:38:57.214Z,99528.66
2022-11-16T10:41:41.564Z,99517.44
2022-11-16T10:44:35.816Z,99517.44
2022-11-16T10:47:14.898Z,99513.44
2022-11-16T10:49:56.818Z,99500.56
2022-11-16T10:52:23.630Z,99499.31
2022-11-16T10:54:50.262Z,99500.13
2022-11-16T10:57:17.714Z,99494.47
2022-11-16T10:59:45.717Z,99492.47
2022-11-16T11:02:36.865Z,99496.03
2022-11-16T11:05:20.074Z,99490.78
2022-11-16T11:07:55.451Z,99492.69
2022-11-16T11:10:34.674Z,99485.47
2022-11-16T11:13:09.167Z,99486.63
2022-11-16T11:15:36.331Z,99476.94
2022-11-16T11:18:23.972Z,99481.38
2022-11-16T11:21:21.050Z,99479.72
2022-11-16T11:23:53.240Z,99475.66
2022-11-16T11:26:37.518Z,99482.09
2022-11-16T11:29:20.592Z,99479.25
2022-11-16T11:31:52.046Z,99481.22
2022-11-16T11:34:31.743Z,99477.22
2022-11-16T11:37:03.148Z,99482.03
2022-11-16T11:39:31.196Z,99471.56
2022-11-16T11:42:17.230Z,99468.38
2022-11-16T11:44:47.400Z,99468.34
2022-11-16T11:47:59.666Z,99458.75
2022-11-16T11:50:42.738Z,99454.69
2022-11-16T11:53:35.753Z,99457.06
2022-11-16T11:56:04.222Z,99455.38
2022-11-16T11:58:34.039Z,99454.16
2022-11-16T12:01:24.862Z,99460.56
2022-11-16T12:04:10.497Z,99451.66
2022-11-16T12:06:55.635Z,99449.63
2022-11-16T12:09:34.084Z,99455.56
2022-11-16T12:12:29.748Z,99448.66
2022-11-16T12:15:21.367Z,99447.69
2022-11-16T12:18:31.962Z,99447.63
2022-11-16T12:21:13.466Z,99448.31
2022-11-16T12:23:54.979Z,99448.63
2022-11-16T12:26:24.080Z,99453.78
2022-11-16T12:29:02.549Z,99450.13
2022-11-16T12:31:54.458Z,99458.88
2022-11-16T12:34:36.619Z,99443.53
2022-11-16T12:37:15.814Z,99439.09
2022-11-16T12:40:08.304Z,99448.81
2022-11-16T12:42:45.374Z,99435.53
2022-11-16T12:45:43.687Z,99442.78
2022-11-16T12:48:10.193Z,99437.13
2022-11-16T12:50:50.283Z,99434.28
2022-11-16T12:53:37.386Z,99431.97
2022-11-16T12:56:15.849Z,99432.81
2022-11-16T12:59:16.500Z,99421.19
2022-11-16T13:01:57.583Z,99423.59
2022-11-16T13:04:36.076Z,99411.56
2022-11-16T13:07:11.131Z,99415.16
2022-11-16T13:09:43.351Z,99412.00
2022-11-16T13:12:15.364Z,99410.03
2022-11-16T13:14:45.829Z,99413.25
2022-11-16T13:17:34.867Z,99405.31
2022-11-16T13:20:41.073Z,99403.72
2022-11-16T13:23:46.047Z,99401.69
2022-11-16T13:26:31.739Z,99390.50
2022-11-16T13:29:15.208Z,99394.16
2022-11-16T13:32:05.867Z,99389.81
2022-11-16T13:34:35.276Z,99395.00
2022-11-16T13:37:01.652Z,99388.19
2022-11-16T13:39:58.802Z,99387.88
2022-11-16T13:42:26.530Z,99387.84
2022-11-16T13:44:53.449Z,99383.44
2022-11-16T13:47:27.473Z,99381.84
2022-11-16T13:49:58.013Z,99382.66
2022-11-16T13:53:40.942Z,99383.47
2022-11-16T13:55:38.734Z,99379.44
2022-11-16T13:58:07.227Z,99382.25
2022-11-16T14:00:36.380Z,99377.50
2022-11-16T14:03:29.829Z,99378.38
2022-11-16T14:05:57.553Z,99373.13
2022-11-16T14:08:27.189Z,99373.19
2022-11-16T14:10:53.642Z,99371.19
2022-11-16T14:13:36.411Z,99373.34
2022-11-16T14:16:15.090Z,99373.38
2022-11-16T14:18:42.373Z,99376.19
2022-11-16T14:21:30.630Z,99387.03
2022-11-16T14:24:23.233Z,99389.94
2022-11-16T14:27:18.670Z,99388.38
2022-11-16T14:30:13.609Z,99380.44
2022-11-16T14:32:49.444Z,99376.03
2022-11-16T14:35:39.433Z,99363.66
2022-11-16T14:38:16.344Z,99364.81
2022-11-16T14:40:52.580Z,99360.84
2022-11-16T14:43:31.501Z,99360.44
2022-11-16T14:46:02.092Z,99362.47
2022-11-16T14:48:29.144Z,99362.09
2022-11-16T14:51:14.934Z,99362.59
2022-11-16T14:53:50.546Z,99356.59
2022-11-16T14:56:18.732Z,99365.06
2022-11-16T14:59:16.199Z,99366.38
2022-11-16T15:01:42.871Z,99369.59
2022-11-16T15:04:12.017Z,99368.44
2022-11-16T15:06:43.965Z,99362.50
2022-11-16T15:09:18.093Z,99356.91
2022-11-16T15:12:07.419Z,99360.56
2022-11-16T15:14:40.471Z,99354.97
2022-11-16T15:17:07.924Z,99347.38
2022-11-16T15:19:34.706Z,99357.03
2022-11-16T15:22:02.893Z,99357.44
2022-11-16T15:24:33.429Z,99348.22
2022-11-16T15:27:25.561Z,99349.84
2022-11-16T15:29:52.065Z,99351.03
2022-11-16T15:32:18.616Z,99345.84
2022-11-16T15:34:53.140Z,99346.66
2022-11-16T15:37:30.449Z,99343.47
2022-11-16T15:40:00.086Z,99340.66
2022-11-16T15:42:30.591Z,99345.13
2022-11-16T15:45:01.192Z,99343.50
2022-11-16T15:47:28.241Z,99347.53
2022-11-16T15:49:55.415Z,99348.34
2022-11-16T15:52:41.348Z,99333.97
2022-11-16T15:55:20.818Z,99327.56
2022-11-16T15:57:59.206Z,99323.13
2022-11-16T16:00:26.720Z,99329.16
2022-11-16T16:02:55.486Z,99335.19
2022-11-16T16:05:39.663Z,99327.19
2022-11-16T16:08:23.303Z,99326.38
2022-11-16T16:11:10.500Z,99315.59
2022-11-16T16:13:42.877Z,99309.19
2022-11-16T16:16:30.389Z,99302.03
2022-11-16T16:19:03.647Z,99302.09
2022-11-16T16:21:42.392Z,99307.75
2022-11-16T16:24:12.011Z,99306.19
2022-11-16T16:26:38.389Z,99309.06
2022-11-16T16:29:04.684Z,99304.31
2022-11-16T16:31:31.008Z,99309.56
2022-11-16T16:33:59.575Z,99299.56
2022-11-16T16:36:26.000Z,99294.78
2022-11-16T16:38:55.140Z,99290.78
2022-11-16T16:41:24.560Z,99294.41
2022-11-16T16:43:51.573Z,99286.81
2022-11-16T16:46:18.415Z,99288.88
2022-11-16T16:48:45.079Z,99275.25
2022-11-16T16:51:12.453Z,99279.69
2022-11-16T16:53:39.263Z,99288.91
2022-11-16T16:56:06.491Z,99275.31
2022-11-16T16:58:32.903Z,99278.09
2022-11-16T17:01:04.192Z,99286.91
2022-11-16T17:03:30.686Z,99267.69
2022-11-16T17:06:02.478Z,99272.50
2022-11-16T17:08:36.329Z,99278.09
2022-11-16T17:11:03.249Z,99284.88
2022-11-16T17:13:30.024Z,99285.25
2022-11-16T17:15:56.486Z,99278.84
2022-11-16T17:18:23.454Z,99280.47
2022-11-16T17:20:50.114Z,99277.25
2022-11-16T17:23:18.233Z,99277.25
2022-11-16T17:25:44.637Z,99271.63
2022-11-16T17:28:11.246Z,99273.22
2022-11-16T17:30:37.596Z,99266.03
2022-11-16T17:33:04.006Z,99263.63
2022-11-16T17:35:30.567Z,99264.81
2022-11-16T17:37:58.620Z,99259.63
2022-11-16T17:40:24.987Z,99257.59
2022-11-16T17:42:52.958Z,99250.41
2022-11-16T17:45:19.468Z,99248.41
2022-11-16T17:47:45.955Z,99243.59
2022-11-16T17:50:12.748Z,99244.38
2022-11-16T17:52:39.122Z,99239.56
2022-11-16T17:55:06.081Z,99239.56
2022-11-16T17:57:32.858Z,99244.38
2022-11-16T17:59:59.384Z,99237.19
2022-11-16T18:02:26.285Z,99237.97
2022-11-16T18:04:52.706Z,99246.41
2022-11-16T18:07:21.519Z,99243.16
2022-11-16T18:09:47.978Z,99237.56
2022-11-16T18:12:16.145Z,99235.56
2022-11-16T18:14:42.670Z,99225.13
2022-11-16T18:17:13.610Z,99228.31
2022-11-16T18:19:39.996Z,99224.72
2022-11-16T18:22:06.595Z,99227.13
2022-11-16T18:24:33.034Z,99219.13
2022-11-16T18:26:59.459Z,99221.13
2022-11-16T18:29:25.835Z,99222.72
2022-11-16T18:31:54.262Z,99222.31
2022-11-16T18:34:20.561Z,99218.72
2022-11-16T18:36:48.865Z,99218.72
2022-11-16T18:39:15.221Z,99215.91
2022-11-16T18:41:50.103Z,99226.78
2022-11-16T18:44:20.970Z,99217.13
2022-11-16T18:46:47.549Z,99212.72
2022-11-16T18:49:13.846Z,99204.31
2022-11-16T18:51:40.348Z,99205.09
2022-11-16T18:54:06.935Z,99197.50
2022-11-16T18:56:34.973Z,99200.34
2022-11-16T18:59:01.747Z,99194.00
2022-11-16T19:01:29.378Z,99191.59
2022-11-16T19:03:56.788Z,99194.84
2022-11-16T19:06:24.816Z,99195.69
2022-11-16T19:08:59.113Z,99187.34
2022-11-16T19:11:28.300Z,99187.81
2022-11-16T19:14:00.858Z,99189.44
2022-11-16T19:16:27.542Z,99188.66
2022-11-16T19:18:53.828Z,99195.50
2022-11-16T19:21:24.152Z,99191.53
2022-11-16T19:23:54.243Z,99191.97
2022-11-16T19:26:24.976Z,99182.00
2022-11-16T19:28:52.759Z,99189.63
2022-11-16T19:31:23.272Z,99191.69
2022-11-16T19:34:18.727Z,99195.72
2022-11-16T19:36:46.121Z,99190.91
2022-11-16T19:39:12.425Z,99184.94
2022-11-16T19:41:38.754Z,99186.19
2022-11-16T19:44:05.154Z,99184.19
2022-11-16T19:46:34.165Z,99186.19
2022-11-16T19:49:00.888Z,99176.63
2022-11-16T19:51:29.192Z,99176.66
2022-11-16T19:53:56.484Z,99183.44
2022-11-16T19:56:24.682Z,99184.25
2022-11-16T19:58:51.594Z,99176.28
2022-11-16T20:01:19.515Z,99175.88
2022-11-16T20:03:47.500Z,99176.72
2022-11-16T20:06:15.014Z,99164.31
2022-11-16T20:08:42.816Z,99172.72
2022-11-16T20:11:20.755Z,99166.34
2022-11-16T20:13:51.199Z,99156.72
2022-11-16T20:16:20.429Z,99149.56
2022-11-16T20:18:47.562Z,99153.94
2022-11-16T20:21:20.956Z,99139.19
2022-11-16T20:23:48.090Z,99131.19
2022-11-16T20:26:15.029Z,99125.22
2022-11-16T20:28:43.137Z,99126.03
2022-11-16T20:31:20.998Z,99130.81
2022-11-16T20:33:53.442Z,99121.63
2022-11-16T20:36:22.683Z,99120.47
2022-11-16T20:38:49.615Z,99128.03
2022-11-16T20:41:23.454Z,99126.44
2022-11-16T20:43:51.734Z,99128.47
2022-11-16T20:46:19.343Z,99124.06
2022-11-16T20:48:46.131Z,99121.69
2022-11-16T20:51:17.026Z,99118.91
2022-11-16T20:53:44.628Z,99114.53
2022-11-16T20:56:11.313Z,99109.34
2022-11-16T20:58:38.948Z,99111.72
2022-11-16T21:01:14.405Z,99097.75
2022-11-16T21:03:42.469Z,99090.97
2022-11-16T21:06:08.803Z,99088.59
2022-11-16T21:08:37.492Z,99077.44
2022-11-16T21:11:19.905Z,99079.03
2022-11-16T21:14:07.381Z,99073.84
2022-11-16T21:16:34.157Z,99077.84
2022-11-16T21:19:01.287Z,99081.03
2022-11-16T21:21:28.039Z,99069.03
2022-11-16T21:23:57.534Z,99074.63
2022-11-16T21:26:26.873Z,99072.25
2022-11-16T21:28:55.641Z,99079.06
2022-11-16T21:31:25.721Z,99071.47
2022-11-16T21:33:53.999Z,99076.63
2022-11-16T21:36:23.720Z,99074.63
2022-11-16T21:38:51.056Z,99072.25
2022-11-16T21:41:19.425Z,99062.28
2022-11-16T21:43:46.201Z,99063.88
2022-11-16T21:46:15.151Z,99057.47
2022-11-16T21:48:42.253Z,99048.69
2022-11-16T21:51:14.122Z,99048.31
2022-11-16T21:53:42.020Z,99031.13
2022-11-16T21:56:13.226Z,99029.91
2022-11-16T21:58:40.790Z,99026.31
2022-11-16T22:01:08.320Z,99018.72
2022-11-16T22:03:35.722Z,99009.91
2022-11-16T22:06:24.104Z,99002.31
2022-11-16T22:08:50.665Z,99003.50
2022-11-16T22:11:17.723Z,99002.31
2022-11-16T22:13:44.490Z,98992.31
2022-11-16T22:16:13.144Z,98988.72
2022-11-16T22:18:39.541Z,98984.72
2022-11-16T22:21:06.069Z,98981.91
2022-11-16T22:23:33.525Z,98977.50
2022-11-16T22:26:04.323Z,98969.16
2022-11-16T22:28:33.109Z,98969.94
2022-11-16T22:31:00.256Z,98967.94
2022-11-16T22:33:26.686Z,98962.34
2022-11-16T22:35:53.318Z,98957.13
2022-11-16T22:38:19.654Z,98953.97
2022-11-16T22:40:53.309Z,98951.97
2022-11-16T22:43:21.567Z,98954.78
2022-11-16T22:45:47.886Z,98953.56
2022-11-16T22:48:14.725Z,98944.81
2022-11-16T22:50:42.004Z,98939.63
2022-11-16T22:53:09.764Z,98931.63
2022-11-16T22:55:37.724Z,98919.66
2022-11-16T22:58:05.480Z,98917.69
2022-11-16T23:00:36.346Z,98919.28
2022-11-16T23:03:05.553Z,98908.53
2022-11-16T23:05:31.872Z,98905.34
2022-11-16T23:07:58.230Z,98901.38
2022-11-16T23:10:24.609Z,98894.59
2022-11-16T23:13:09.357Z,98886.63
2022-11-16T23:15:51.202Z,98885.81
2022-11-16T23:18:19.661Z,98880.22
2022-11-16T23:21:04.881Z,98868.69
2022-11-16T23:23:49.454Z,98862.69
2022-11-16T23:26:41.772Z,98852.31
2022-11-16T23:29:11.055Z,98850.72
2022-11-16T23:31:38.102Z,98841.13
2022-11-16T23:34:05.067Z,98840.72
2022-11-16T23:36:31.550Z,98835.09
2022-11-16T23:38:57.960Z,98832.28
2022-11-16T23:41:56.543Z,98820.69
2022-11-16T23:44:23.118Z,98825.03
2022-11-16T23:46:49.642Z,98813.03
2022-11-16T23:49:15.956Z,98807.03
2022-11-16T23:51:42.287Z,98801.78
2022-11-16T23:54:08.596Z,98801.75
2022-11-16T23:56:34.905Z,98802.94
2022-11-16T23:59:01.241Z,98803.69
